createdAt,value
2018-04-07T00:00:42.126Z,2.80
2018-04-07T00:01:45.400Z,2.47
2018-04-07T00:02:47.883Z,2.58
2018-04-07T00:03:51.130Z,3.00
2018-04-07T00:04:53.632Z,2.78
2018-04-07T00:05:56.128Z,2.92
2018-04-07T00:06:59.399Z,2.80
2018-04-07T00:08:01.892Z,2.95
2018-04-07T00:09:04.371Z,3.03
2018-04-07T00:10:06.851Z,3.17
2018-04-07T00:11:09.346Z,2.72
2018-04-07T00:12:11.857Z,2.40
2018-04-07T00:13:15.096Z,3.15
2018-04-07T00:14:17.588Z,2.55
2018-04-07T00:15:20.084Z,2.83
2018-04-07T00:16:23.330Z,2.58
2018-04-07T00:17:25.837Z,2.60
2018-04-07T00:18:29.076Z,2.30
2018-04-07T00:19:31.569Z,2.60
2018-04-07T00:20:34.868Z,2.45
2018-04-07T00:21:37.355Z,2.90
2018-04-07T00:22:40.630Z,2.40
2018-04-07T00:23:43.106Z,2.42
2018-04-07T00:24:46.358Z,2.42
2018-04-07T00:25:48.862Z,2.85
2018-04-07T00:26:51.345Z,2.70
2018-04-07T00:27:54.628Z,2.30
2018-04-07T00:28:57.902Z,2.53
2018-04-07T00:30:00.409Z,2.47
2018-04-07T00:31:02.903Z,2.30
2018-04-07T00:32:05.397Z,2.90
2018-04-07T00:33:07.913Z,2.87
2018-04-07T00:34:10.422Z,3.30
2018-04-07T00:35:12.906Z,2.85
2018-04-07T00:36:15.393Z,2.80
2018-04-07T00:37:17.892Z,2.25
2018-04-07T00:38:20.421Z,2.97
2018-04-07T00:39:22.915Z,2.55
2018-04-07T00:40:26.169Z,2.80
2018-04-07T00:41:28.699Z,2.25
2018-04-07T00:42:31.179Z,2.60
2018-04-07T00:43:33.688Z,2.67
2018-04-07T00:44:36.183Z,2.53
2018-04-07T00:45:39.444Z,2.10
2018-04-07T00:46:41.930Z,2.28
2018-04-07T00:47:45.182Z,2.80
2018-04-07T00:48:47.677Z,2.53
2018-04-07T00:49:50.166Z,2.40
2018-04-07T00:50:53.422Z,2.55
2018-04-07T00:51:55.909Z,2.75
2018-04-07T00:52:58.402Z,2.58
2018-04-07T00:54:01.694Z,2.47
2018-04-07T00:55:04.954Z,2.80
2018-04-07T00:56:07.446Z,2.42
2018-04-07T00:57:10.712Z,2.47
2018-04-07T00:58:13.218Z,2.60
2018-04-07T00:59:15.701Z,3.22
2018-04-07T01:00:18.186Z,2.28
2018-04-07T01:01:20.667Z,3.17
2018-04-07T01:02:23.160Z,2.75
2018-04-07T01:03:26.419Z,2.33
2018-04-07T01:04:28.921Z,2.80
2018-04-07T01:05:31.409Z,2.50
2018-04-07T01:06:34.652Z,2.25
2018-04-07T01:07:37.138Z,2.60
2018-04-07T01:08:39.638Z,2.85
2018-04-07T01:09:42.896Z,2.67
2018-04-07T01:10:45.382Z,2.62
2018-04-07T01:11:47.867Z,2.90
2018-04-07T01:12:50.356Z,2.62
2018-04-07T01:13:52.855Z,2.83
2018-04-07T01:14:55.338Z,2.50
2018-04-07T01:15:57.828Z,2.50
2018-04-07T01:17:00.320Z,2.70
2018-04-07T01:18:03.581Z,2.00
2018-04-07T01:19:06.066Z,2.70
2018-04-07T01:20:09.336Z,2.75
2018-04-07T01:21:11.822Z,2.58
2018-04-07T01:22:15.070Z,2.20
2018-04-07T01:23:17.562Z,2.47
2018-04-07T01:24:20.811Z,2.47
2018-04-07T01:25:23.317Z,2.35
2018-04-07T01:26:25.794Z,2.67
2018-04-07T01:27:28.278Z,2.60
2018-04-07T01:28:30.762Z,2.92
2018-04-07T01:29:34.003Z,2.30
2018-04-07T01:30:36.500Z,2.53
2018-04-07T01:31:38.990Z,2.35
2018-04-07T01:32:42.249Z,2.70
2018-04-07T01:33:44.733Z,2.47
2018-04-07T01:34:48.006Z,2.62
2018-04-07T01:35:50.836Z,2.55
2018-04-07T01:36:53.327Z,2.20
2018-04-07T01:37:55.815Z,3.20
2018-04-07T01:38:58.302Z,2.47
2018-04-07T01:40:00.787Z,2.58
2018-04-07T01:41:04.075Z,2.70
2018-04-07T01:42:07.335Z,2.50
2018-04-07T01:43:11.329Z,2.25
2018-04-07T01:44:13.807Z,2.78
2018-04-07T01:45:16.284Z,2.85
2018-04-07T01:46:18.784Z,2.42
2018-04-07T01:47:22.055Z,2.40
2018-04-07T01:48:24.541Z,2.55
2018-04-07T01:49:27.781Z,3.00
2018-04-07T01:50:30.295Z,2.50
2018-04-07T01:51:33.588Z,2.22
2018-04-07T01:52:36.836Z,2.28
2018-04-07T01:53:39.331Z,2.90
2018-04-07T01:54:42.587Z,2.75
2018-04-07T01:55:45.070Z,2.62
2018-04-07T01:56:47.573Z,2.70
2018-04-07T01:57:50.835Z,2.40
2018-04-07T01:58:53.317Z,2.35
2018-04-07T01:59:56.566Z,2.67
2018-04-07T02:00:59.041Z,2.85
2018-04-07T02:02:01.544Z,2.70
2018-04-07T02:03:04.820Z,2.87
2018-04-07T02:04:07.304Z,2.60
2018-04-07T02:05:10.567Z,3.35
2018-04-07T02:06:13.048Z,2.30
2018-04-07T02:07:15.554Z,2.55
2018-04-07T02:08:18.067Z,2.40
2018-04-07T02:09:21.403Z,2.80
2018-04-07T02:10:24.651Z,2.30
2018-04-07T02:11:27.133Z,2.50
2018-04-07T02:12:29.627Z,2.90
2018-04-07T02:13:32.892Z,2.70
2018-04-07T02:14:35.375Z,2.72
2018-04-07T02:15:38.622Z,2.60
2018-04-07T02:16:41.100Z,2.70
2018-04-07T02:17:43.618Z,2.35
2018-04-07T02:18:46.891Z,2.37
2018-04-07T02:19:50.177Z,2.65
2018-04-07T02:20:53.438Z,2.62
2018-04-07T02:21:55.917Z,2.90
2018-04-07T02:22:58.423Z,3.00
2018-04-07T02:24:01.759Z,2.65
2018-04-07T02:26:05.180Z,2.30
2018-04-07T02:27:07.695Z,3.12
2018-04-07T02:28:10.214Z,2.92
2018-04-07T02:29:12.692Z,2.37
2018-04-07T02:30:15.179Z,2.65
2018-04-07T02:31:17.647Z,2.33
2018-04-07T02:32:20.890Z,2.50
2018-04-07T02:33:23.381Z,2.20
2018-04-07T02:34:25.876Z,2.35
2018-04-07T02:35:28.383Z,2.80
2018-04-07T02:36:30.856Z,3.10
2018-04-07T02:37:33.344Z,2.67
2018-04-07T02:38:35.836Z,2.80
2018-04-07T02:39:38.319Z,2.50
2018-04-07T02:40:40.809Z,3.22
2018-04-07T02:41:44.050Z,2.15
2018-04-07T02:42:46.532Z,2.80
2018-04-07T02:43:49.030Z,2.50
2018-04-07T02:44:52.296Z,2.55
2018-04-07T02:45:54.783Z,2.35
2018-04-07T02:46:58.027Z,3.30
2018-04-07T02:48:00.509Z,2.30
2018-04-07T02:49:03.000Z,2.53
2018-04-07T02:50:05.491Z,2.15
2018-04-07T02:51:08.744Z,2.30
2018-04-07T02:52:11.263Z,2.55
2018-04-07T02:53:13.751Z,2.45
2018-04-07T02:54:16.242Z,2.30
2018-04-07T02:55:18.727Z,2.85
2018-04-07T02:56:22.728Z,2.58
2018-04-07T02:57:25.237Z,2.45
2018-04-07T02:58:28.492Z,2.50
2018-04-07T02:59:31.006Z,2.35
2018-04-07T03:00:33.497Z,2.97
2018-04-07T03:01:35.978Z,2.75
2018-04-07T03:02:38.474Z,3.10
2018-04-07T03:03:41.005Z,2.75
2018-04-07T03:04:44.244Z,2.22
2018-04-07T03:05:46.734Z,2.78
2018-04-07T03:06:49.224Z,2.85
2018-04-07T03:07:51.718Z,2.40
2018-04-07T03:08:54.239Z,2.95
2018-04-07T03:09:57.486Z,2.60
2018-04-07T03:10:59.972Z,2.67
2018-04-07T03:12:02.470Z,2.37
2018-04-07T03:13:05.708Z,2.75
2018-04-07T03:14:08.205Z,3.17
2018-04-07T03:15:10.692Z,2.78
2018-04-07T03:16:13.949Z,2.55
2018-04-07T03:17:16.443Z,2.50
2018-04-07T03:18:19.756Z,2.50
2018-04-07T03:19:22.261Z,2.87
2018-04-07T03:20:24.742Z,3.05
2018-04-07T03:21:27.261Z,2.70
2018-04-07T03:22:29.750Z,3.05
2018-04-07T03:23:32.266Z,3.03
2018-04-07T03:24:34.764Z,3.17
2018-04-07T03:25:38.015Z,3.45
2018-04-07T03:26:42.030Z,2.20
2018-04-07T03:27:44.514Z,2.58
2018-04-07T03:38:32.027Z,2.25
2018-04-07T03:39:34.526Z,2.50
2018-04-07T03:40:37.774Z,2.50
2018-04-07T03:41:40.294Z,2.20
2018-04-07T03:42:42.790Z,2.72
2018-04-07T03:43:45.268Z,2.40
2018-04-07T03:44:47.769Z,2.70
2018-04-07T03:45:50.262Z,3.03
2018-04-07T03:46:53.506Z,2.70
2018-04-07T03:47:55.994Z,2.85
2018-04-07T03:48:58.470Z,3.00
2018-04-07T03:50:00.964Z,2.65
2018-04-07T03:51:04.232Z,2.45
2018-04-07T03:52:06.710Z,2.60
2018-04-07T03:53:09.985Z,2.75
2018-04-07T03:54:12.514Z,2.70
2018-04-07T03:55:15.007Z,2.72
2018-04-07T03:56:17.493Z,3.08
2018-04-07T03:57:20.753Z,2.80
2018-04-07T03:58:23.242Z,3.00
2018-04-07T03:59:27.227Z,2.05
2018-04-07T04:00:29.736Z,3.53
2018-04-07T04:01:32.985Z,2.80
2018-04-07T04:02:35.491Z,2.62
2018-04-07T04:03:37.989Z,2.90
2018-04-07T04:04:40.488Z,2.70
2018-04-07T04:05:42.978Z,2.92
2018-04-07T04:06:45.464Z,3.78
2018-04-07T04:07:47.946Z,2.45
2018-04-07T04:08:51.215Z,3.47
2018-04-07T04:09:53.700Z,3.08
2018-04-07T04:10:56.941Z,2.78
2018-04-07T04:11:59.424Z,3.08
2018-04-07T04:13:01.914Z,3.65
2018-04-07T04:14:04.422Z,2.80
2018-04-07T04:15:06.900Z,3.10
2018-04-07T04:16:09.377Z,2.83
2018-04-07T04:17:11.983Z,3.25
2018-04-07T04:18:14.516Z,3.25
2018-04-07T04:19:17.022Z,3.03
2018-04-07T04:20:19.512Z,3.30
2018-04-07T04:21:22.783Z,3.10
2018-04-07T04:22:25.270Z,2.87
2018-04-07T04:23:27.777Z,2.95
2018-04-07T04:24:30.282Z,2.80
2018-04-07T04:25:32.799Z,2.65
2018-04-07T04:26:36.049Z,2.83
2018-04-07T04:27:38.542Z,3.37
2018-04-07T04:28:41.042Z,2.90
2018-04-07T04:29:43.526Z,3.20
2018-04-07T04:30:46.027Z,3.75
2018-04-07T04:31:48.514Z,3.37
2018-04-07T04:32:50.991Z,3.37
2018-04-07T04:33:53.498Z,2.78
2018-04-07T04:34:55.999Z,3.03
2018-04-07T04:35:58.478Z,4.35
2018-04-07T04:37:00.974Z,3.08
2018-04-07T04:38:03.463Z,3.20
2018-04-07T04:39:06.730Z,2.80
2018-04-07T04:40:09.213Z,3.00
2018-04-07T04:41:12.738Z,3.22
2018-04-07T04:42:15.223Z,2.40
2018-04-07T04:43:17.713Z,3.17
2018-04-07T04:44:20.207Z,2.87
2018-04-07T04:45:22.699Z,4.15
2018-04-07T04:46:25.188Z,3.33
2018-04-07T04:47:27.670Z,2.50
2018-04-07T04:48:30.926Z,3.05
2018-04-07T04:49:33.427Z,2.95
2018-04-07T04:50:36.689Z,3.33
2018-04-07T04:51:39.194Z,3.40
2018-04-07T04:52:42.451Z,3.05
2018-04-07T04:53:44.937Z,3.15
2018-04-07T04:54:48.188Z,3.10
2018-04-07T04:55:50.698Z,2.90
2018-04-07T04:56:53.942Z,2.97
2018-04-07T04:57:56.423Z,3.00
2018-04-07T04:58:58.917Z,2.90
2018-04-07T05:00:01.408Z,3.25
2018-04-07T05:01:03.919Z,3.25
2018-04-07T05:02:06.408Z,3.28
2018-04-07T05:03:08.893Z,3.00
2018-04-07T05:04:12.315Z,2.50
2018-04-07T05:05:14.808Z,2.90
2018-04-07T05:06:17.314Z,3.40
2018-04-07T05:07:20.591Z,4.45
2018-04-07T05:08:23.086Z,3.08
2018-04-07T05:09:25.591Z,3.75
2018-04-07T05:10:28.076Z,3.30
2018-04-07T05:11:30.570Z,3.22
2018-04-07T05:12:33.081Z,3.20
2018-04-07T05:13:36.333Z,3.72
2018-04-07T05:14:38.831Z,3.15
2018-04-07T05:15:42.093Z,3.05
2018-04-07T05:16:44.616Z,3.30
2018-04-07T05:17:47.117Z,3.58
2018-04-07T05:18:49.608Z,2.85
2018-04-07T05:19:52.135Z,3.20
2018-04-07T05:20:54.633Z,3.72
2018-04-07T05:21:57.140Z,3.37
2018-04-07T05:23:00.396Z,2.85
2018-04-07T05:24:02.889Z,2.83
2018-04-07T05:25:05.362Z,3.10
2018-04-07T05:26:07.850Z,3.03
2018-04-07T05:27:11.264Z,3.92
2018-04-07T05:28:13.749Z,3.12
2018-04-07T05:29:16.229Z,3.37
2018-04-07T05:30:18.713Z,3.37
2018-04-07T05:31:21.206Z,3.20
2018-04-07T05:32:23.693Z,3.40
2018-04-07T05:33:26.173Z,3.60
2018-04-07T05:34:28.663Z,3.35
2018-04-07T05:35:31.149Z,2.90
2018-04-07T05:36:33.641Z,3.28
2018-04-07T05:37:37.637Z,3.55
2018-04-07T05:38:40.167Z,3.55
2018-04-07T05:39:42.641Z,3.22
2018-04-07T05:40:45.136Z,3.30
2018-04-07T05:41:47.625Z,3.42
2018-04-07T05:42:50.117Z,3.60
2018-04-07T05:43:53.372Z,3.70
2018-04-07T05:44:55.864Z,3.22
2018-04-07T05:45:59.128Z,3.22
2018-04-07T05:47:01.623Z,3.47
2018-04-07T05:48:04.132Z,3.97
2018-04-07T05:49:06.614Z,3.85
2018-04-07T05:50:09.304Z,3.92
2018-04-07T05:51:12.076Z,3.95
2018-04-07T05:52:14.594Z,3.60
2018-04-07T05:53:17.865Z,4.15
2018-04-07T05:54:20.381Z,3.50
2018-04-07T05:55:22.873Z,3.37
2018-04-07T05:56:25.375Z,4.53
2018-04-07T05:57:28.626Z,3.87
2018-04-07T05:58:31.116Z,3.62
2018-04-07T05:59:34.382Z,3.90
2018-04-07T06:00:36.883Z,3.80
2018-04-07T06:01:39.375Z,3.60
2018-04-07T06:02:42.637Z,4.28
2018-04-07T06:03:45.149Z,3.15
2018-04-07T06:04:47.724Z,3.97
2018-04-07T06:05:50.223Z,3.53
2018-04-07T06:06:52.723Z,4.20
2018-04-07T06:07:55.211Z,3.83
2018-04-07T06:08:58.494Z,3.90
2018-04-07T06:10:03.187Z,3.60
2018-04-07T06:11:05.738Z,4.43
2018-04-07T06:12:08.256Z,3.80
2018-04-07T06:13:10.863Z,3.95
2018-04-07T06:14:13.370Z,4.28
2018-04-07T06:15:15.865Z,3.90
2018-04-07T06:16:18.372Z,3.58
2018-04-07T06:17:20.871Z,4.50
2018-04-07T06:18:23.399Z,4.30
2018-04-07T06:19:26.673Z,4.22
2018-04-07T06:20:29.941Z,4.47
2018-04-07T06:21:32.456Z,3.60
2018-04-07T06:22:34.950Z,3.92
2018-04-07T06:23:37.430Z,4.57
2018-04-07T06:24:39.973Z,4.32
2018-04-07T06:25:42.463Z,4.43
2018-04-07T06:26:44.972Z,4.15
2018-04-07T06:27:47.488Z,4.05
2018-04-07T06:28:50.002Z,4.78
2018-04-07T06:29:52.512Z,3.97
2018-04-07T06:30:55.045Z,4.35
2018-04-07T06:31:57.542Z,4.78
2018-04-07T06:33:00.790Z,4.50
2018-04-07T06:34:03.303Z,4.60
2018-04-07T06:35:06.818Z,4.90
2018-04-07T06:36:09.362Z,4.65
2018-04-07T06:37:12.680Z,4.57
2018-04-07T06:38:15.196Z,4.50
2018-04-07T06:39:17.719Z,5.32
2018-04-07T06:40:20.237Z,4.28
2018-04-07T06:41:22.741Z,4.47
2018-04-07T06:42:25.236Z,5.15
2018-04-07T06:43:27.747Z,4.40
2018-04-07T06:44:30.232Z,5.12
2018-04-07T06:45:32.748Z,5.10
2018-04-07T06:46:35.243Z,5.12
2018-04-07T06:47:37.751Z,5.07
2018-04-07T06:48:40.255Z,4.65
2018-04-07T06:49:42.764Z,5.18
2018-04-07T06:50:45.282Z,4.40
2018-04-07T06:51:47.792Z,5.47
2018-04-07T06:52:50.324Z,5.00
2018-04-07T06:53:52.818Z,5.22
2018-04-07T06:54:55.301Z,4.72
2018-04-07T06:55:57.815Z,5.32
2018-04-07T06:57:01.095Z,4.87
2018-04-07T06:58:03.575Z,5.03
2018-04-07T06:59:06.841Z,5.78
2018-04-07T07:00:09.349Z,4.97
2018-04-07T07:01:12.051Z,4.87
2018-04-07T07:02:14.539Z,5.50
2018-04-07T07:03:17.026Z,4.78
2018-04-07T07:04:19.533Z,4.40
2018-04-07T07:05:22.107Z,5.90
2018-04-07T07:06:24.652Z,5.20
2018-04-07T07:07:27.258Z,5.07
2018-04-07T07:08:29.773Z,5.12
2018-04-07T07:09:32.301Z,5.32
2018-04-07T07:10:34.796Z,5.35
2018-04-07T07:11:37.293Z,4.65
2018-04-07T07:12:39.790Z,5.40
2018-04-07T07:13:43.068Z,5.40
2018-04-07T07:14:46.341Z,5.10
2018-04-07T07:15:48.832Z,6.20
2018-04-07T07:16:52.140Z,5.70
2018-04-07T07:17:54.636Z,5.60
2018-04-07T07:18:57.123Z,5.70
2018-04-07T07:19:59.609Z,5.18
2018-04-07T07:21:02.129Z,4.62
2018-04-07T07:22:04.642Z,5.15
2018-04-07T07:23:07.134Z,5.35
2018-04-07T07:24:09.726Z,5.50
2018-04-07T07:25:12.514Z,4.93
2018-04-07T07:26:15.052Z,6.07
2018-04-07T07:27:17.585Z,5.97
2018-04-07T07:28:20.082Z,4.55
2018-04-07T07:29:22.580Z,5.60
2018-04-07T07:30:25.112Z,5.90
2018-04-07T07:31:27.606Z,6.30
2018-04-07T07:32:30.114Z,5.30
2018-04-07T07:33:32.631Z,5.70
2018-04-07T07:34:35.132Z,5.95
2018-04-07T07:35:38.422Z,5.78
2018-04-07T07:36:41.719Z,5.80
2018-04-07T07:37:44.243Z,6.20
2018-04-07T07:38:46.772Z,5.43
2018-04-07T07:39:49.267Z,5.62
2018-04-07T07:40:51.775Z,6.18
2018-04-07T07:41:54.273Z,6.62
2018-04-07T07:42:57.554Z,6.15
2018-04-07T07:44:00.843Z,5.72
2018-04-07T07:45:04.158Z,6.97
2018-04-07T07:46:06.646Z,5.87
2018-04-07T07:47:09.190Z,6.40
2018-04-07T07:48:11.866Z,5.57
2018-04-07T07:49:14.371Z,7.28
2018-04-07T07:50:16.865Z,6.47
2018-04-07T07:51:20.165Z,5.57
2018-04-07T07:52:23.465Z,6.07
2018-04-07T07:53:26.748Z,6.40
2018-04-07T07:54:30.038Z,6.60
2018-04-07T07:55:32.549Z,6.50
2018-04-07T07:56:35.087Z,6.12
2018-04-07T07:57:37.592Z,6.10
2018-04-07T07:58:40.116Z,6.25
2018-04-07T07:59:43.382Z,5.90
2018-04-07T08:00:45.898Z,5.70
2018-04-07T08:01:48.408Z,6.12
2018-04-07T08:02:50.934Z,6.05
2018-04-07T08:03:53.471Z,5.95
2018-04-07T08:04:55.970Z,5.60
2018-04-07T08:05:58.498Z,6.03
2018-04-07T08:07:01.023Z,7.00
2018-04-07T08:08:03.529Z,6.05
2018-04-07T08:09:06.070Z,6.47
2018-04-07T08:10:08.568Z,6.05
2018-04-07T08:11:11.179Z,6.57
2018-04-07T08:12:14.460Z,6.17
2018-04-07T08:13:16.978Z,7.50
2018-04-07T08:14:19.505Z,7.20
2018-04-07T08:15:22.021Z,6.57
2018-04-07T08:16:24.515Z,7.10
2018-04-07T08:17:27.051Z,7.07
2018-04-07T08:18:29.568Z,7.53
2018-04-07T08:19:32.854Z,5.97
2018-04-07T08:20:35.487Z,7.27
2018-04-07T08:21:37.978Z,7.07
2018-04-07T08:22:40.475Z,7.13
2018-04-07T08:23:43.197Z,6.23
2018-04-07T08:24:45.701Z,6.00
2018-04-07T08:25:48.226Z,5.93
2018-04-07T08:26:51.512Z,7.13
2018-04-07T08:27:54.775Z,7.27
2018-04-07T08:28:57.267Z,6.97
2018-04-07T08:30:00.569Z,7.10
2018-04-07T08:31:03.113Z,6.70
2018-04-07T08:32:06.427Z,6.27
2018-04-07T08:33:08.899Z,7.65
2018-04-07T08:34:11.551Z,6.60
2018-04-07T08:35:14.873Z,6.37
2018-04-07T08:36:17.404Z,6.70
2018-04-07T08:37:19.964Z,6.77
2018-04-07T08:38:22.478Z,7.70
2018-04-07T08:39:25.055Z,6.70
2018-04-07T08:40:27.520Z,6.73
2018-04-07T08:41:30.020Z,6.77
2018-04-07T08:42:32.531Z,7.07
2018-04-07T08:43:35.039Z,6.23
2018-04-07T08:44:37.539Z,7.23
2018-04-07T08:45:40.038Z,7.10
2018-04-07T08:46:43.324Z,6.97
2018-04-07T08:47:45.814Z,7.43
2018-04-07T08:48:49.148Z,6.93
2018-04-07T08:49:51.639Z,6.27
2018-04-07T08:50:54.149Z,7.03
2018-04-07T08:51:56.654Z,7.00
2018-04-07T08:52:59.162Z,6.03
2018-04-07T08:54:01.687Z,7.00
2018-04-07T08:55:04.205Z,7.10
2018-04-07T08:56:06.711Z,7.43
2018-04-07T08:57:09.226Z,7.17
2018-04-07T08:58:11.765Z,7.20
2018-04-07T08:59:14.278Z,6.87
2018-04-07T09:00:16.807Z,7.53
2018-04-07T09:01:19.328Z,6.87
2018-04-07T09:02:21.883Z,7.53
2018-04-07T09:03:24.399Z,7.77
2018-04-07T09:04:26.905Z,8.10
2018-04-07T09:05:29.426Z,6.90
2018-04-07T09:06:32.712Z,6.33
2018-04-07T09:07:35.989Z,7.30
2018-04-07T09:08:38.524Z,6.70
2018-04-07T09:09:41.032Z,7.00
2018-04-07T09:10:43.537Z,6.97
2018-04-07T09:11:46.022Z,7.87
2018-04-07T09:12:48.542Z,6.63
2018-04-07T09:13:51.033Z,7.17
2018-04-07T09:14:54.306Z,6.60
2018-04-07T09:15:57.587Z,6.97
2018-04-07T09:17:00.117Z,6.33
2018-04-07T09:18:02.643Z,7.00
2018-04-07T09:19:05.915Z,7.67
2018-04-07T09:20:08.446Z,7.20
2018-04-07T09:21:10.968Z,7.00
2018-04-07T09:22:14.287Z,7.20
2018-04-07T09:23:16.857Z,6.47
2018-04-07T09:24:19.379Z,7.73
2018-04-07T09:25:21.896Z,7.23
2018-04-07T09:26:24.420Z,7.50
2018-04-07T09:27:26.950Z,7.93
2018-04-07T09:28:29.446Z,7.17
2018-04-07T09:29:31.930Z,7.33
2018-04-07T09:30:34.441Z,7.63
2018-04-07T09:31:36.949Z,7.33
2018-04-07T09:32:39.472Z,7.53
2018-04-07T09:33:41.987Z,6.87
2018-04-07T09:34:44.495Z,7.07
2018-04-07T09:35:47.008Z,7.30
2018-04-07T09:36:49.510Z,7.30
2018-04-07T09:37:52.038Z,7.70
2018-04-07T09:38:54.577Z,7.83
2018-04-07T09:39:57.856Z,8.40
2018-04-07T09:41:00.365Z,7.60
2018-04-07T09:42:02.898Z,6.00
2018-04-07T09:43:05.399Z,7.62
2018-04-07T09:44:07.931Z,7.57
2018-04-07T09:45:10.682Z,7.23
2018-04-07T09:46:13.268Z,6.70
2018-04-07T09:47:15.902Z,6.93
2018-04-07T09:48:18.411Z,6.95
2018-04-07T09:49:20.938Z,7.40
2018-04-07T09:50:23.434Z,7.35
2018-04-07T09:51:25.943Z,7.30
2018-04-07T09:52:28.550Z,7.15
2018-04-07T09:53:31.076Z,7.62
2018-04-07T09:54:33.577Z,7.10
2018-04-07T09:55:36.828Z,7.15
2018-04-07T09:56:39.330Z,7.20
2018-04-07T09:57:42.592Z,7.62
2018-04-07T09:58:45.111Z,7.50
2018-04-07T09:59:47.625Z,7.15
2018-04-07T10:00:50.147Z,7.07
2018-04-07T10:01:52.659Z,7.35
2018-04-07T10:03:01.066Z,7.95
2018-04-07T10:04:03.606Z,7.20
2018-04-07T10:05:06.115Z,6.60
2018-04-07T10:06:08.623Z,7.32
2018-04-07T10:07:11.960Z,7.22
2018-04-07T10:08:14.449Z,7.60
2018-04-07T10:09:16.977Z,7.82
2018-04-07T10:10:19.485Z,7.93
2018-04-07T10:11:21.980Z,7.53
2018-04-07T10:12:25.252Z,7.00
2018-04-07T10:13:27.787Z,8.32
2018-04-07T10:14:30.314Z,7.85
2018-04-07T10:15:32.835Z,7.68
2018-04-07T10:16:35.339Z,9.00
2018-04-07T10:17:37.844Z,7.28
2018-04-07T10:18:41.150Z,7.20
2018-04-07T10:19:43.670Z,7.62
2018-04-07T10:20:46.166Z,6.75
2018-04-07T10:21:49.431Z,7.00
2018-04-07T10:22:51.926Z,6.97
2018-04-07T10:23:55.242Z,6.68
2018-04-07T10:24:57.769Z,7.90
2018-04-07T10:26:00.262Z,7.32
2018-04-07T10:27:02.771Z,7.15
2018-04-07T10:28:05.289Z,7.18
2018-04-07T10:29:08.555Z,7.65
2018-04-07T10:30:11.186Z,7.05
2018-04-07T10:31:13.781Z,7.53
2018-04-07T10:32:16.423Z,6.35
2018-04-07T10:33:18.926Z,7.37
2018-04-07T10:34:21.436Z,7.18
2018-04-07T10:35:24.703Z,7.93
2018-04-07T10:36:28.021Z,7.47
2018-04-07T10:37:31.290Z,7.30
2018-04-07T10:38:33.830Z,7.37
2018-04-07T10:39:36.318Z,7.40
2018-04-07T10:40:38.839Z,7.30
2018-04-07T10:41:41.365Z,6.95
2018-04-07T10:42:43.859Z,7.75
2018-04-07T10:43:47.120Z,7.85
2018-04-07T10:44:49.631Z,7.40
2018-04-07T10:45:52.145Z,6.90
2018-04-07T10:46:54.661Z,8.45
2018-04-07T10:47:57.934Z,7.62
2018-04-07T10:49:01.205Z,8.38
2018-04-07T10:50:03.733Z,7.00
2018-04-07T10:51:06.291Z,7.43
2018-04-07T10:52:08.786Z,7.40
2018-04-07T10:53:11.439Z,7.80
2018-04-07T10:54:13.981Z,7.57
2018-04-07T10:55:17.300Z,7.95
2018-04-07T10:56:19.818Z,7.65
2018-04-07T10:57:22.330Z,6.80
2018-04-07T10:58:24.827Z,6.78
2018-04-07T10:59:27.323Z,7.45
2018-04-07T11:00:29.822Z,7.80
2018-04-07T11:01:33.083Z,6.93
2018-04-07T11:02:35.663Z,8.52
2018-04-07T11:03:38.171Z,7.12
2018-04-07T11:04:40.670Z,7.75
2018-04-07T11:05:43.163Z,8.10
2018-04-07T11:06:45.673Z,7.68
2018-04-07T11:07:48.957Z,8.57
2018-04-07T11:08:52.222Z,7.82
2018-04-07T11:09:54.734Z,8.00
2018-04-07T11:10:57.261Z,7.80
2018-04-07T11:11:59.778Z,7.60
2018-04-07T11:13:02.312Z,7.12
2018-04-07T11:14:05.620Z,6.10
2018-04-07T11:15:08.881Z,6.90
2018-04-07T11:16:11.503Z,7.35
2018-04-07T11:17:14.100Z,6.47
2018-04-07T11:18:16.624Z,7.70
2018-04-07T11:19:19.882Z,7.70
2018-04-07T11:20:22.382Z,7.05
2018-04-07T11:21:25.699Z,6.37
2018-04-07T11:22:28.261Z,7.72
2018-04-07T11:23:30.764Z,6.45
2018-04-07T11:24:33.403Z,6.97
2018-04-07T11:25:35.919Z,6.43
2018-04-07T11:26:38.412Z,6.93
2018-04-07T11:27:41.682Z,7.18
2018-04-07T11:28:44.202Z,7.10
2018-04-07T11:29:46.700Z,6.70
2018-04-07T11:30:49.205Z,6.05
2018-04-07T11:31:51.708Z,7.25
2018-04-07T11:32:54.247Z,7.70
2018-04-07T11:33:56.753Z,7.03
2018-04-07T11:34:59.249Z,6.32
2018-04-07T11:36:01.785Z,6.93
2018-04-07T11:37:05.049Z,6.70
2018-04-07T11:38:07.554Z,7.10
2018-04-07T11:39:10.277Z,6.55
2018-04-07T11:40:12.866Z,6.75
2018-04-07T11:41:15.376Z,6.95
2018-04-07T11:42:17.884Z,6.45
2018-04-07T11:43:20.616Z,7.00
2018-04-07T11:44:23.133Z,7.57
2018-04-07T11:45:25.635Z,7.40
2018-04-07T11:46:28.956Z,6.85
2018-04-07T11:47:31.490Z,7.47
2018-04-07T11:48:34.022Z,7.72
2018-04-07T11:49:36.534Z,5.72
2018-04-07T11:50:39.797Z,6.12
2018-04-07T11:51:42.310Z,6.22
2018-04-07T11:52:46.496Z,6.60
2018-04-07T11:53:49.036Z,5.50
2018-04-07T11:54:51.550Z,7.18
2018-04-07T11:55:54.849Z,5.90
2018-04-07T11:56:57.363Z,6.43
2018-04-07T11:57:59.896Z,5.85
2018-04-07T11:59:03.211Z,6.07
2018-04-07T12:00:06.479Z,6.62
2018-04-07T12:01:08.985Z,7.40
2018-04-07T12:02:11.648Z,6.20
2018-04-07T12:03:14.161Z,7.50
2018-04-07T12:04:16.706Z,6.28
2018-04-07T12:05:19.234Z,5.47
2018-04-07T12:06:21.774Z,6.35
2018-04-07T12:07:25.038Z,5.30
2018-04-07T12:08:27.558Z,6.00
2018-04-07T12:09:30.109Z,5.68
2018-04-07T12:10:33.395Z,5.90
2018-04-07T12:11:36.698Z,6.65
2018-04-07T12:12:39.988Z,6.90
2018-04-07T12:13:43.245Z,6.75
2018-04-07T12:14:45.759Z,6.15
2018-04-07T12:15:48.317Z,6.28
2018-04-07T12:16:50.806Z,6.10
2018-04-07T12:17:53.354Z,7.25
2018-04-07T12:18:56.635Z,7.00
2018-04-07T12:19:59.155Z,7.00
2018-04-07T12:21:01.712Z,6.45
2018-04-07T12:22:04.232Z,5.50
2018-04-07T12:23:07.502Z,5.45
2018-04-07T12:24:10.028Z,5.75
2018-04-07T12:25:12.689Z,5.53
2018-04-07T12:26:15.976Z,5.03
2018-04-07T12:27:19.266Z,5.15
2018-04-07T12:28:22.546Z,5.27
2018-04-07T12:29:25.821Z,4.60
2018-04-07T12:30:28.342Z,4.27
2018-04-07T12:31:30.863Z,5.62
2018-04-07T12:32:33.416Z,5.70
2018-04-07T12:33:35.910Z,5.40
2018-04-07T12:34:38.420Z,4.53
2018-04-07T12:35:40.966Z,6.00
2018-04-07T12:36:44.235Z,4.70
2018-04-07T12:37:46.718Z,4.80
2018-04-07T12:38:49.236Z,5.60
2018-04-07T12:39:51.760Z,4.50
2018-04-07T12:40:54.299Z,5.10
2018-04-07T12:41:56.804Z,4.60
2018-04-07T12:42:59.335Z,4.80
2018-04-07T12:44:01.845Z,4.50
2018-04-07T12:45:04.375Z,4.17
2018-04-07T12:46:06.884Z,4.67
2018-04-07T12:47:09.416Z,4.70
2018-04-07T12:48:12.053Z,4.77
2018-04-07T12:49:15.330Z,4.30
2018-04-07T12:50:18.599Z,4.50
2018-04-07T12:51:21.130Z,4.00
2018-04-07T12:52:23.653Z,4.37
2018-04-07T12:53:26.939Z,4.10
2018-04-07T12:54:30.320Z,3.73
2018-04-07T12:55:33.649Z,4.27
2018-04-07T12:56:36.175Z,4.30
2018-04-07T12:57:38.696Z,4.20
2018-04-07T12:58:41.208Z,4.23
2018-04-07T12:59:43.732Z,4.10
2018-04-07T13:00:46.247Z,4.00
2018-04-07T13:01:48.747Z,3.97
2018-04-07T13:02:52.010Z,4.40
2018-04-07T13:03:54.520Z,4.50
2018-04-07T13:04:57.779Z,4.27
2018-04-07T13:06:00.289Z,4.13
2018-04-07T13:07:02.845Z,4.40
2018-04-07T13:08:06.119Z,3.60
2018-04-07T13:09:08.798Z,3.80
2018-04-07T13:10:12.334Z,3.50
2018-04-07T13:11:14.839Z,3.97
2018-04-07T13:12:18.136Z,3.33
2018-04-07T13:13:20.659Z,3.10
2018-04-07T13:14:23.168Z,3.50
2018-04-07T13:15:25.653Z,3.33
2018-04-07T13:16:28.184Z,4.00
2018-04-07T13:17:30.696Z,3.70
2018-04-07T13:18:33.995Z,2.93
2018-04-07T13:19:37.278Z,3.60
2018-04-07T13:20:39.792Z,3.80
2018-04-07T13:21:42.306Z,3.40
2018-04-07T13:22:44.827Z,2.63
2018-04-07T13:23:47.335Z,3.00
2018-04-07T13:24:49.846Z,3.20
2018-04-07T13:25:53.115Z,2.80
2018-04-07T13:26:55.632Z,3.20
2018-04-07T13:27:58.140Z,3.03
2018-04-07T13:29:00.662Z,3.10
2018-04-07T13:30:03.180Z,3.50
2018-04-07T13:31:05.687Z,2.80
2018-04-07T13:32:08.949Z,3.13
2018-04-07T13:33:11.477Z,3.30
2018-04-07T13:34:14.097Z,2.80
2018-04-07T13:35:16.586Z,3.57
2018-04-07T13:36:19.874Z,2.83
2018-04-07T13:37:22.373Z,3.73
2018-04-07T13:38:24.900Z,2.90
2018-04-07T13:39:28.183Z,2.60
2018-04-07T13:40:30.683Z,3.10
2018-04-07T13:41:33.951Z,3.20
2018-04-07T13:42:37.228Z,3.00
2018-04-07T13:43:39.775Z,2.80
2018-04-07T13:44:42.255Z,2.77
2018-04-07T13:45:44.797Z,2.70
2018-04-07T13:46:47.295Z,3.03
2018-04-07T13:47:49.790Z,3.17
2018-04-07T13:48:53.060Z,2.07
2018-04-07T13:49:55.560Z,2.47
2018-04-07T13:50:58.819Z,3.00
2018-04-07T13:52:01.332Z,2.20
2018-04-07T13:53:03.835Z,2.30
2018-04-07T13:54:06.335Z,2.60
2018-04-07T13:55:08.832Z,2.67
2018-04-07T13:56:12.119Z,2.50
2018-04-07T13:57:15.399Z,3.00
2018-04-07T13:58:18.680Z,2.63
2018-04-07T13:59:21.189Z,2.70
2018-04-07T14:00:23.716Z,2.83
2018-04-07T14:01:26.216Z,3.13
2018-04-07T14:02:28.728Z,2.73
2018-04-07T14:03:32.141Z,2.37
2018-04-07T14:04:35.428Z,2.30
2018-04-07T14:05:38.052Z,2.70